sensor_id;sensor_type;location;lat;lon;timestamp;P1;durP1;ratioP1;P2;durP2;ratioP2
52186;SDS011;38161;53.020;6.598;2022-12-05T00:00:34;33.80;;;17.87;;
52186;SDS011;38161;53.020;6.598;2022-12-05T00:03:03;35.38;;;18.80;;
52186;SDS011;38161;53.020;6.598;2022-12-05T00:05:29;30.83;;;17.70;;
52186;SDS011;38161;53.020;6.598;2022-12-05T00:07:55;32.53;;;18.00;;
52186;SDS011;38161;53.020;6.598;2022-12-05T00:10:21;34.50;;;18.70;;
52186;SDS011;38161;53.020;6.598;2022-12-05T00:12:47;32.43;;;17.70;;
52186;SDS011;38161;53.020;6.598;2022-12-05T00:15:13;34.72;;;19.27;;
52186;SDS011;38161;53.020;6.598;2022-12-05T00:17:39;32.07;;;17.47;;
52186;SDS011;38161;53.020;6.598;2022-12-05T00:20:05;35.05;;;18.88;;
52186;SDS011;38161;53.020;6.598;2022-12-05T00:22:34;34.20;;;18.27;;
52186;SDS011;38161;53.020;6.598;2022-12-05T00:25:02;32.08;;;17.77;;
52186;SDS011;38161;53.020;6.598;2022-12-05T00:27:30;31.90;;;17.35;;
52186;SDS011;38161;53.020;6.598;2022-12-05T00:29:55;31.87;;;16.73;;
52186;SDS011;38161;53.020;6.598;2022-12-05T00:32:21;30.93;;;16.10;;
52186;SDS011;38161;53.020;6.598;2022-12-05T00:34:47;30.57;;;16.77;;
52186;SDS011;38161;53.020;6.598;2022-12-05T00:37:12;32.10;;;17.47;;
52186;SDS011;38161;53.020;6.598;2022-12-05T00:39:38;29.93;;;16.83;;
52186;SDS011;38161;53.020;6.598;2022-12-05T00:42:04;27.50;;;16.40;;
52186;SDS011;38161;53.020;6.598;2022-12-05T00:44:29;31.97;;;17.33;;
52186;SDS011;38161;53.020;6.598;2022-12-05T00:46:55;31.03;;;17.23;;
52186;SDS011;38161;53.020;6.598;2022-12-05T00:49:21;28.23;;;17.17;;
52186;SDS011;38161;53.020;6.598;2022-12-05T00:51:46;30.07;;;17.70;;
52186;SDS011;38161;53.020;6.598;2022-12-05T00:54:13;35.63;;;18.67;;
52186;SDS011;38161;53.020;6.598;2022-12-05T00:56:40;33.75;;;18.98;;
52186;SDS011;38161;53.020;6.598;2022-12-05T00:59:06;34.80;;;18.20;;
52186;SDS011;38161;53.020;6.598;2022-12-05T01:01:36;33.75;;;18.67;;
52186;SDS011;38161;53.020;6.598;2022-12-05T01:04:05;33.15;;;17.42;;
52186;SDS011;38161;53.020;6.598;2022-12-05T01:06:35;36.45;;;19.75;;
52186;SDS011;38161;53.020;6.598;2022-12-05T01:09:02;38.50;;;19.85;;
52186;SDS011;38161;53.020;6.598;2022-12-05T01:11:28;41.05;;;20.45;;
52186;SDS011;38161;53.020;6.598;2022-12-05T01:13:55;37.63;;;20.48;;
52186;SDS011;38161;53.020;6.598;2022-12-05T01:16:55;36.60;;;19.58;;
52186;SDS011;38161;53.020;6.598;2022-12-05T01:19:16;39.25;;;20.75;;
52186;SDS011;38161;53.020;6.598;2022-12-05T01:21:45;38.70;;;21.17;;
52186;SDS011;38161;53.020;6.598;2022-12-05T01:26:38;38.05;;;19.88;;
52186;SDS011;38161;53.020;6.598;2022-12-05T01:29:05;42.50;;;22.45;;
52186;SDS011;38161;53.020;6.598;2022-12-05T01:31:32;39.27;;;20.93;;
52186;SDS011;38161;53.020;6.598;2022-12-05T01:34:00;37.28;;;19.70;;
52186;SDS011;38161;53.020;6.598;2022-12-05T01:36:28;42.40;;;20.90;;
52186;SDS011;38161;53.020;6.598;2022-12-05T01:38:55;40.63;;;21.90;;
52186;SDS011;38161;53.020;6.598;2022-12-05T01:41:22;36.92;;;20.60;;
52186;SDS011;38161;53.020;6.598;2022-12-05T01:46:21;39.72;;;20.35;;
52186;SDS011;38161;53.020;6.598;2022-12-05T01:48:47;41.50;;;21.38;;
52186;SDS011;38161;53.020;6.598;2022-12-05T01:51:15;41.42;;;21.33;;
52186;SDS011;38161;53.020;6.598;2022-12-05T01:53:41;35.33;;;20.50;;
52186;SDS011;38161;53.020;6.598;2022-12-05T01:56:07;39.33;;;20.80;;
52186;SDS011;38161;53.020;6.598;2022-12-05T01:58:34;36.85;;;20.42;;
52186;SDS011;38161;53.020;6.598;2022-12-05T02:01:03;42.15;;;20.80;;
52186;SDS011;38161;53.020;6.598;2022-12-05T02:03:28;36.90;;;21.02;;
52186;SDS011;38161;53.020;6.598;2022-12-05T02:05:55;35.92;;;19.92;;
52186;SDS011;38161;53.020;6.598;2022-12-05T02:08:22;36.35;;;19.63;;
52186;SDS011;38161;53.020;6.598;2022-12-05T02:10:52;33.80;;;19.83;;
52186;SDS011;38161;53.020;6.598;2022-12-05T02:24:57;36.10;;;20.38;;
52186;SDS011;38161;53.020;6.598;2022-12-05T02:30:46;36.55;;;18.95;;
52186;SDS011;38161;53.020;6.598;2022-12-05T02:33:28;32.10;;;19.27;;
52186;SDS011;38161;53.020;6.598;2022-12-05T02:36:12;35.17;;;19.42;;
52186;SDS011;38161;53.020;6.598;2022-12-05T02:38:50;31.83;;;18.15;;
52186;SDS011;38161;53.020;6.598;2022-12-05T02:44:29;33.58;;;19.05;;
52186;SDS011;38161;53.020;6.598;2022-12-05T02:47:00;34.92;;;18.83;;
52186;SDS011;38161;53.020;6.598;2022-12-05T02:49:29;32.35;;;18.50;;
52186;SDS011;38161;53.020;6.598;2022-12-05T02:51:58;34.00;;;18.48;;
52186;SDS011;38161;53.020;6.598;2022-12-05T02:54:36;30.27;;;17.85;;
52186;SDS011;38161;53.020;6.598;2022-12-05T02:57:05;31.88;;;17.60;;
52186;SDS011;38161;53.020;6.598;2022-12-05T02:59:32;28.48;;;16.63;;
52186;SDS011;38161;53.020;6.598;2022-12-05T03:01:58;26.83;;;16.20;;
52186;SDS011;38161;53.020;6.598;2022-12-05T03:04:24;29.50;;;16.97;;
52186;SDS011;38161;53.020;6.598;2022-12-05T03:07:04;26.63;;;15.25;;
52186;SDS011;38161;53.020;6.598;2022-12-05T03:09:41;26.60;;;14.27;;
52186;SDS011;38161;53.020;6.598;2022-12-05T03:15:11;22.27;;;13.65;;
52186;SDS011;38161;53.020;6.598;2022-12-05T03:18:22;26.45;;;14.10;;
52186;SDS011;38161;53.020;6.598;2022-12-05T03:20:52;19.95;;;11.88;;
52186;SDS011;38161;53.020;6.598;2022-12-05T03:23:24;19.38;;;11.18;;
52186;SDS011;38161;53.020;6.598;2022-12-05T03:29:28;19.90;;;12.10;;
52186;SDS011;38161;53.020;6.598;2022-12-05T03:32:15;18.73;;;11.52;;
52186;SDS011;38161;53.020;6.598;2022-12-05T03:35:03;20.05;;;12.25;;
52186;SDS011;38161;53.020;6.598;2022-12-05T03:40:30;21.00;;;11.77;;
52186;SDS011;38161;53.020;6.598;2022-12-05T03:45:47;16.77;;;11.52;;
52186;SDS011;38161;53.020;6.598;2022-12-05T03:48:29;18.90;;;11.27;;
52186;SDS011;38161;53.020;6.598;2022-12-05T03:51:02;21.00;;;11.50;;
52186;SDS011;38161;53.020;6.598;2022-12-05T03:53:32;17.20;;;11.15;;
52186;SDS011;38161;53.020;6.598;2022-12-05T03:56:12;21.73;;;12.02;;
52186;SDS011;38161;53.020;6.598;2022-12-05T03:58:54;17.95;;;11.60;;
52186;SDS011;38161;53.020;6.598;2022-12-05T04:01:34;17.67;;;10.50;;
52186;SDS011;38161;53.020;6.598;2022-12-05T04:04:05;18.08;;;11.15;;
52186;SDS011;38161;53.020;6.598;2022-12-05T04:06:37;16.55;;;10.85;;
52186;SDS011;38161;53.020;6.598;2022-12-05T04:09:09;18.38;;;10.05;;
52186;SDS011;38161;53.020;6.598;2022-12-05T04:11:39;17.98;;;11.73;;
52186;SDS011;38161;53.020;6.598;2022-12-05T04:14:10;18.05;;;11.20;;
52186;SDS011;38161;53.020;6.598;2022-12-05T04:16:54;15.27;;;10.32;;
52186;SDS011;38161;53.020;6.598;2022-12-05T04:22:16;15.68;;;9.93;;
52186;SDS011;38161;53.020;6.598;2022-12-05T04:24:43;15.40;;;9.40;;
52186;SDS011;38161;53.020;6.598;2022-12-05T04:30:13;15.25;;;10.15;;
52186;SDS011;38161;53.020;6.598;2022-12-05T04:35:14;17.08;;;9.60;;
52186;SDS011;38161;53.020;6.598;2022-12-05T04:37:48;12.52;;;8.35;;
52186;SDS011;38161;53.020;6.598;2022-12-05T04:40:22;14.98;;;8.55;;
52186;SDS011;38161;53.020;6.598;2022-12-05T04:42:53;13.57;;;8.60;;
52186;SDS011;38161;53.020;6.598;2022-12-05T04:45:20;13.45;;;8.55;;
52186;SDS011;38161;53.020;6.598;2022-12-05T04:47:50;12.40;;;8.18;;
52186;SDS011;38161;53.020;6.598;2022-12-05T04:50:21;15.23;;;7.80;;
52186;SDS011;38161;53.020;6.598;2022-12-05T04:52:51;12.75;;;8.50;;
52186;SDS011;38161;53.020;6.598;2022-12-05T04:55:22;13.25;;;7.88;;
52186;SDS011;38161;53.020;6.598;2022-12-05T04:57:55;12.85;;;8.35;;
52186;SDS011;38161;53.020;6.598;2022-12-05T05:00:32;13.70;;;7.72;;
52186;SDS011;38161;53.020;6.598;2022-12-05T05:03:05;10.57;;;7.32;;
52186;SDS011;38161;53.020;6.598;2022-12-05T05:05:56;12.48;;;7.30;;
52186;SDS011;38161;53.020;6.598;2022-12-05T05:08:23;11.20;;;8.05;;
52186;SDS011;38161;53.020;6.598;2022-12-05T05:13:18;10.63;;;7.00;;
52186;SDS011;38161;53.020;6.598;2022-12-05T05:15:44;10.17;;;6.73;;
52186;SDS011;38161;53.020;6.598;2022-12-05T05:18:09;12.00;;;7.00;;
52186;SDS011;38161;53.020;6.598;2022-12-05T05:20:37;12.70;;;7.37;;
52186;SDS011;38161;53.020;6.598;2022-12-05T05:23:03;10.45;;;5.75;;
52186;SDS011;38161;53.020;6.598;2022-12-05T05:25:29;10.73;;;7.13;;
52186;SDS011;38161;53.020;6.598;2022-12-05T05:27:55;10.37;;;6.53;;
52186;SDS011;38161;53.020;6.598;2022-12-05T05:30:21;9.27;;;6.20;;
52186;SDS011;38161;53.020;6.598;2022-12-05T05:32:48;9.77;;;6.38;;
52186;SDS011;38161;53.020;6.598;2022-12-05T05:35:14;10.88;;;6.97;;
52186;SDS011;38161;53.020;6.598;2022-12-05T05:37:41;10.82;;;6.82;;
52186;SDS011;38161;53.020;6.598;2022-12-05T05:40:07;10.82;;;6.72;;
52186;SDS011;38161;53.020;6.598;2022-12-05T05:42:35;10.43;;;6.80;;
52186;SDS011;38161;53.020;6.598;2022-12-05T05:45:00;11.10;;;6.97;;
52186;SDS011;38161;53.020;6.598;2022-12-05T05:47:26;10.53;;;6.80;;
52186;SDS011;38161;53.020;6.598;2022-12-05T05:49:52;12.10;;;7.57;;
52186;SDS011;38161;53.020;6.598;2022-12-05T05:52:18;14.37;;;7.40;;
52186;SDS011;38161;53.020;6.598;2022-12-05T05:54:43;11.67;;;6.87;;
52186;SDS011;38161;53.020;6.598;2022-12-05T05:57:09;10.70;;;6.43;;
52186;SDS011;38161;53.020;6.598;2022-12-05T05:59:35;11.30;;;6.90;;
52186;SDS011;38161;53.020;6.598;2022-12-05T06:02:00;10.30;;;6.50;;
52186;SDS011;38161;53.020;6.598;2022-12-05T06:04:26;10.67;;;6.47;;
52186;SDS011;38161;53.020;6.598;2022-12-05T06:06:52;13.40;;;6.40;;
52186;SDS011;38161;53.020;6.598;2022-12-05T06:09:17;10.80;;;6.43;;
52186;SDS011;38161;53.020;6.598;2022-12-05T06:11:43;11.57;;;6.90;;
52186;SDS011;38161;53.020;6.598;2022-12-05T06:14:09;11.90;;;6.97;;
52186;SDS011;38161;53.020;6.598;2022-12-05T06:16:34;10.07;;;6.70;;
52186;SDS011;38161;53.020;6.598;2022-12-05T06:19:00;11.37;;;6.77;;
52186;SDS011;38161;53.020;6.598;2022-12-05T06:21:26;10.80;;;7.13;;
52186;SDS011;38161;53.020;6.598;2022-12-05T06:23:52;9.80;;;6.63;;
52186;SDS011;38161;53.020;6.598;2022-12-05T06:26:19;14.07;;;7.18;;
52186;SDS011;38161;53.020;6.598;2022-12-05T06:28:46;13.27;;;7.32;;
52186;SDS011;38161;53.020;6.598;2022-12-05T06:31:13;10.75;;;6.45;;
52186;SDS011;38161;53.020;6.598;2022-12-05T06:33:41;11.85;;;6.55;;
52186;SDS011;38161;53.020;6.598;2022-12-05T06:36:08;11.30;;;6.63;;
52186;SDS011;38161;53.020;6.598;2022-12-05T06:38:38;11.00;;;6.65;;
52186;SDS011;38161;53.020;6.598;2022-12-05T06:41:05;11.57;;;6.75;;
52186;SDS011;38161;53.020;6.598;2022-12-05T06:43:37;11.30;;;6.18;;
52186;SDS011;38161;53.020;6.598;2022-12-05T06:46:03;13.47;;;7.53;;
52186;SDS011;38161;53.020;6.598;2022-12-05T06:48:30;10.15;;;6.63;;
52186;SDS011;38161;53.020;6.598;2022-12-05T06:50:55;11.93;;;7.23;;
52186;SDS011;38161;53.020;6.598;2022-12-05T06:53:21;11.83;;;6.97;;
52186;SDS011;38161;53.020;6.598;2022-12-05T06:55:56;11.37;;;6.47;;
52186;SDS011;38161;53.020;6.598;2022-12-05T06:58:23;10.63;;;6.63;;
52186;SDS011;38161;53.020;6.598;2022-12-05T07:00:50;11.85;;;6.88;;
52186;SDS011;38161;53.020;6.598;2022-12-05T07:03:34;11.80;;;6.68;;
52186;SDS011;38161;53.020;6.598;2022-12-05T07:06:01;10.77;;;6.93;;
52186;SDS011;38161;53.020;6.598;2022-12-05T07:08:28;12.30;;;7.20;;
52186;SDS011;38161;53.020;6.598;2022-12-05T07:10:53;12.32;;;7.38;;
52186;SDS011;38161;53.020;6.598;2022-12-05T07:13:20;11.93;;;7.05;;
52186;SDS011;38161;53.020;6.598;2022-12-05T07:15:46;13.93;;;7.22;;
52186;SDS011;38161;53.020;6.598;2022-12-05T07:18:13;14.20;;;7.28;;
52186;SDS011;38161;53.020;6.598;2022-12-05T07:20:40;13.05;;;7.82;;
52186;SDS011;38161;53.020;6.598;2022-12-05T07:23:06;13.90;;;8.05;;
52186;SDS011;38161;53.020;6.598;2022-12-05T07:25:32;11.45;;;7.00;;
52186;SDS011;38161;53.020;6.598;2022-12-05T07:27:58;16.73;;;7.57;;
52186;SDS011;38161;53.020;6.598;2022-12-05T07:30:24;16.73;;;7.57;;
52186;SDS011;38161;53.020;6.598;2022-12-05T07:32:49;16.93;;;7.80;;
52186;SDS011;38161;53.020;6.598;2022-12-05T07:35:15;14.83;;;8.20;;
52186;SDS011;38161;53.020;6.598;2022-12-05T07:37:41;15.27;;;8.57;;
52186;SDS011;38161;53.020;6.598;2022-12-05T07:40:07;13.00;;;7.77;;
52186;SDS011;38161;53.020;6.598;2022-12-05T07:42:33;14.55;;;7.72;;
52186;SDS011;38161;53.020;6.598;2022-12-05T07:44:58;14.77;;;8.43;;
52186;SDS011;38161;53.020;6.598;2022-12-05T07:47:24;14.30;;;8.13;;
52186;SDS011;38161;53.020;6.598;2022-12-05T07:49:50;19.63;;;8.70;;
52186;SDS011;38161;53.020;6.598;2022-12-05T07:52:15;20.27;;;9.17;;
52186;SDS011;38161;53.020;6.598;2022-12-05T07:54:41;15.37;;;8.30;;
52186;SDS011;38161;53.020;6.598;2022-12-05T07:57:07;19.43;;;8.70;;
52186;SDS011;38161;53.020;6.598;2022-12-05T07:59:33;18.92;;;9.30;;
52186;SDS011;38161;53.020;6.598;2022-12-05T08:01:58;17.47;;;9.20;;
52186;SDS011;38161;53.020;6.598;2022-12-05T08:04:24;20.83;;;9.90;;
52186;SDS011;38161;53.020;6.598;2022-12-05T08:06:50;19.10;;;9.27;;
52186;SDS011;38161;53.020;6.598;2022-12-05T08:09:15;17.37;;;9.50;;
52186;SDS011;38161;53.020;6.598;2022-12-05T08:11:41;17.03;;;9.20;;
52186;SDS011;38161;53.020;6.598;2022-12-05T08:14:07;15.63;;;9.57;;
52186;SDS011;38161;53.020;6.598;2022-12-05T08:16:37;17.98;;;8.68;;
52186;SDS011;38161;53.020;6.598;2022-12-05T08:19:05;20.13;;;9.10;;
52186;SDS011;38161;53.020;6.598;2022-12-05T08:21:34;20.42;;;9.40;;
52186;SDS011;38161;53.020;6.598;2022-12-05T08:24:00;16.65;;;8.43;;
52186;SDS011;38161;53.020;6.598;2022-12-05T08:26:28;17.23;;;9.00;;
52186;SDS011;38161;53.020;6.598;2022-12-05T08:28:56;19.80;;;8.73;;
52186;SDS011;38161;53.020;6.598;2022-12-05T08:31:24;15.80;;;7.68;;
52186;SDS011;38161;53.020;6.598;2022-12-05T08:33:51;19.60;;;8.95;;
52186;SDS011;38161;53.020;6.598;2022-12-05T08:36:17;14.77;;;7.93;;
52186;SDS011;38161;53.020;6.598;2022-12-05T08:38:44;18.00;;;9.20;;
52186;SDS011;38161;53.020;6.598;2022-12-05T08:41:10;16.83;;;9.02;;
52186;SDS011;38161;53.020;6.598;2022-12-05T08:43:39;19.15;;;8.95;;
52186;SDS011;38161;53.020;6.598;2022-12-05T08:46:06;15.68;;;7.88;;
52186;SDS011;38161;53.020;6.598;2022-12-05T08:48:32;15.32;;;7.93;;
52186;SDS011;38161;53.020;6.598;2022-12-05T08:50:59;18.05;;;8.38;;
52186;SDS011;38161;53.020;6.598;2022-12-05T08:53:28;13.57;;;8.23;;
52186;SDS011;38161;53.020;6.598;2022-12-05T08:55:54;17.10;;;8.77;;
52186;SDS011;38161;53.020;6.598;2022-12-05T08:58:20;15.53;;;8.00;;
52186;SDS011;38161;53.020;6.598;2022-12-05T09:00:45;17.87;;;8.60;;
52186;SDS011;38161;53.020;6.598;2022-12-05T09:03:11;15.10;;;8.83;;
52186;SDS011;38161;53.020;6.598;2022-12-05T09:05:37;14.32;;;8.23;;
52186;SDS011;38161;53.020;6.598;2022-12-05T09:08:03;17.38;;;8.32;;
52186;SDS011;38161;53.020;6.598;2022-12-05T09:10:29;13.33;;;8.47;;
52186;SDS011;38161;53.020;6.598;2022-12-05T09:12:55;12.65;;;8.18;;
52186;SDS011;38161;53.020;6.598;2022-12-05T09:15:20;14.90;;;7.97;;
52186;SDS011;38161;53.020;6.598;2022-12-05T09:17:46;16.37;;;8.10;;
52186;SDS011;38161;53.020;6.598;2022-12-05T09:20:12;13.73;;;8.27;;
52186;SDS011;38161;53.020;6.598;2022-12-05T09:22:39;16.05;;;8.27;;
52186;SDS011;38161;53.020;6.598;2022-12-05T09:25:05;14.65;;;8.52;;
52186;SDS011;38161;53.020;6.598;2022-12-05T09:27:32;16.45;;;8.65;;
52186;SDS011;38161;53.020;6.598;2022-12-05T09:29:58;14.10;;;8.20;;
52186;SDS011;38161;53.020;6.598;2022-12-05T09:32:24;13.23;;;8.27;;
52186;SDS011;38161;53.020;6.598;2022-12-05T09:34:49;16.70;;;8.57;;
52186;SDS011;38161;53.020;6.598;2022-12-05T09:37:15;16.13;;;8.30;;
52186;SDS011;38161;53.020;6.598;2022-12-05T09:39:45;14.10;;;8.57;;
52186;SDS011;38161;53.020;6.598;2022-12-05T09:42:20;16.40;;;9.15;;
52186;SDS011;38161;53.020;6.598;2022-12-05T09:50:34;17.25;;;8.50;;
52186;SDS011;38161;53.020;6.598;2022-12-05T09:53:12;16.35;;;8.70;;
52186;SDS011;38161;53.020;6.598;2022-12-05T09:56:03;15.43;;;8.38;;
52186;SDS011;38161;53.020;6.598;2022-12-05T09:58:45;14.52;;;8.55;;
52186;SDS011;38161;53.020;6.598;2022-12-05T10:04:18;15.38;;;8.07;;
52186;SDS011;38161;53.020;6.598;2022-12-05T10:26:10;12.90;;;7.47;;
52186;SDS011;38161;53.020;6.598;2022-12-05T10:28:41;15.45;;;8.25;;
52186;SDS011;38161;53.020;6.598;2022-12-05T10:31:14;16.70;;;8.50;;
52186;SDS011;38161;53.020;6.598;2022-12-05T10:33:48;16.70;;;8.73;;
52186;SDS011;38161;53.020;6.598;2022-12-05T10:36:18;16.15;;;8.13;;
52186;SDS011;38161;53.020;6.598;2022-12-05T10:38:44;13.47;;;7.97;;
52186;SDS011;38161;53.020;6.598;2022-12-05T10:41:11;14.52;;;7.07;;
52186;SDS011;38161;53.020;6.598;2022-12-05T10:43:40;14.00;;;7.85;;
52186;SDS011;38161;53.020;6.598;2022-12-05T10:46:08;14.82;;;7.75;;
52186;SDS011;38161;53.020;6.598;2022-12-05T10:48:36;17.27;;;8.80;;
52186;SDS011;38161;53.020;6.598;2022-12-05T10:51:04;14.70;;;7.88;;
52186;SDS011;38161;53.020;6.598;2022-12-05T10:53:37;13.13;;;7.95;;
52186;SDS011;38161;53.020;6.598;2022-12-05T10:59:01;12.07;;;7.30;;
52186;SDS011;38161;53.020;6.598;2022-12-05T11:01:29;14.48;;;7.05;;
52186;SDS011;38161;53.020;6.598;2022-12-05T11:03:56;11.55;;;7.28;;
52186;SDS011;38161;53.020;6.598;2022-12-05T11:06:30;14.30;;;7.35;;
52186;SDS011;38161;53.020;6.598;2022-12-05T11:08:57;12.38;;;7.65;;
52186;SDS011;38161;53.020;6.598;2022-12-05T11:11:59;13.10;;;6.75;;
52186;SDS011;38161;53.020;6.598;2022-12-05T11:14:44;13.05;;;6.40;;
52186;SDS011;38161;53.020;6.598;2022-12-05T11:17:35;11.55;;;6.40;;
52186;SDS011;38161;53.020;6.598;2022-12-05T11:20:31;10.85;;;6.55;;
52186;SDS011;38161;53.020;6.598;2022-12-05T11:22:52;12.13;;;7.15;;
52186;SDS011;38161;53.020;6.598;2022-12-05T11:27:55;10.95;;;6.13;;
52186;SDS011;38161;53.020;6.598;2022-12-05T11:30:24;12.60;;;6.40;;
52186;SDS011;38161;53.020;6.598;2022-12-05T11:35:44;10.57;;;6.13;;
52186;SDS011;38161;53.020;6.598;2022-12-05T11:38:11;9.45;;;6.05;;
52186;SDS011;38161;53.020;6.598;2022-12-05T11:49:23;10.00;;;5.78;;
52186;SDS011;38161;53.020;6.598;2022-12-05T11:55:19;12.90;;;6.80;;
52186;SDS011;38161;53.020;6.598;2022-12-05T12:00:59;13.00;;;7.10;;
52186;SDS011;38161;53.020;6.598;2022-12-05T12:06:32;13.23;;;6.68;;
52186;SDS011;38161;53.020;6.598;2022-12-05T12:12:16;9.75;;;6.05;;
52186;SDS011;38161;53.020;6.598;2022-12-05T12:15:40;10.25;;;6.47;;
52186;SDS011;38161;53.020;6.598;2022-12-05T12:21:24;11.20;;;6.82;;
52186;SDS011;38161;53.020;6.598;2022-12-05T12:29:07;11.27;;;6.20;;
52186;SDS011;38161;53.020;6.598;2022-12-05T12:48:53;12.15;;;6.45;;
52186;SDS011;38161;53.020;6.598;2022-12-05T12:51:50;11.10;;;5.63;;
52186;SDS011;38161;53.020;6.598;2022-12-05T12:54:35;12.13;;;5.90;;
52186;SDS011;38161;53.020;6.598;2022-12-05T13:05:06;12.50;;;5.30;;
52186;SDS011;38161;53.020;6.598;2022-12-05T13:07:42;9.13;;;4.65;;
52186;SDS011;38161;53.020;6.598;2022-12-05T13:10:21;7.88;;;4.85;;
52186;SDS011;38161;53.020;6.598;2022-12-05T13:12:51;8.50;;;5.03;;
52186;SDS011;38161;53.020;6.598;2022-12-05T13:15:22;7.90;;;4.93;;
52186;SDS011;38161;53.020;6.598;2022-12-05T13:17:55;10.43;;;5.20;;
52186;SDS011;38161;53.020;6.598;2022-12-05T13:20:22;11.02;;;5.45;;
52186;SDS011;38161;53.020;6.598;2022-12-05T13:22:52;9.75;;;5.60;;
52186;SDS011;38161;53.020;6.598;2022-12-05T13:25:20;9.02;;;5.13;;
52186;SDS011;38161;53.020;6.598;2022-12-05T13:27:56;7.28;;;4.70;;
52186;SDS011;38161;53.020;6.598;2022-12-05T13:30:27;10.68;;;5.35;;
52186;SDS011;38161;53.020;6.598;2022-12-05T13:33:03;8.80;;;4.80;;
52186;SDS011;38161;53.020;6.598;2022-12-05T13:35:33;10.40;;;4.80;;
52186;SDS011;38161;53.020;6.598;2022-12-05T13:38:20;9.27;;;5.38;;
52186;SDS011;38161;53.020;6.598;2022-12-05T13:41:13;8.38;;;4.50;;
52186;SDS011;38161;53.020;6.598;2022-12-05T13:43:58;9.55;;;4.88;;
52186;SDS011;38161;53.020;6.598;2022-12-05T13:49:18;7.38;;;4.68;;
52186;SDS011;38161;53.020;6.598;2022-12-05T13:51:54;8.25;;;4.78;;
52186;SDS011;38161;53.020;6.598;2022-12-05T13:54:33;10.05;;;5.03;;
52186;SDS011;38161;53.020;6.598;2022-12-05T13:57:05;10.27;;;4.90;;
52186;SDS011;38161;53.020;6.598;2022-12-05T14:00:03;9.75;;;4.93;;
52186;SDS011;38161;53.020;6.598;2022-12-05T14:02:51;8.23;;;5.03;;
52186;SDS011;38161;53.020;6.598;2022-12-05T14:05:35;10.20;;;4.70;;
52186;SDS011;38161;53.020;6.598;2022-12-05T14:15:51;8.65;;;5.22;;
52186;SDS011;38161;53.020;6.598;2022-12-05T14:21:16;9.02;;;5.25;;
52186;SDS011;38161;53.020;6.598;2022-12-05T14:26:47;8.35;;;5.05;;
52186;SDS011;38161;53.020;6.598;2022-12-05T14:32:23;10.60;;;5.18;;
52186;SDS011;38161;53.020;6.598;2022-12-05T14:35:10;9.27;;;5.35;;
52186;SDS011;38161;53.020;6.598;2022-12-05T14:40:19;9.70;;;4.60;;
52186;SDS011;38161;53.020;6.598;2022-12-05T14:55:43;9.27;;;5.28;;
52186;SDS011;38161;53.020;6.598;2022-12-05T14:58:13;12.60;;;5.38;;
52186;SDS011;38161;53.020;6.598;2022-12-05T15:00:45;9.00;;;5.05;;
52186;SDS011;38161;53.020;6.598;2022-12-05T15:03:21;12.88;;;6.05;;
52186;SDS011;38161;53.020;6.598;2022-12-05T15:05:51;11.63;;;5.95;;
52186;SDS011;38161;53.020;6.598;2022-12-05T15:08:17;11.85;;;5.50;;
52186;SDS011;38161;53.020;6.598;2022-12-05T15:10:44;12.52;;;5.88;;
52186;SDS011;38161;53.020;6.598;2022-12-05T15:13:15;10.48;;;5.65;;
52186;SDS011;38161;53.020;6.598;2022-12-05T15:15:59;12.48;;;5.15;;
52186;SDS011;38161;53.020;6.598;2022-12-05T15:18:39;11.85;;;4.80;;
52186;SDS011;38161;53.020;6.598;2022-12-05T15:23:56;8.35;;;4.30;;
52186;SDS011;38161;53.020;6.598;2022-12-05T15:26:36;9.77;;;5.28;;
52186;SDS011;38161;53.020;6.598;2022-12-05T15:31:50;11.50;;;5.80;;
52186;SDS011;38161;53.020;6.598;2022-12-05T15:39:26;8.40;;;4.57;;
52186;SDS011;38161;53.020;6.598;2022-12-05T15:41:53;11.10;;;5.30;;
52186;SDS011;38161;53.020;6.598;2022-12-05T15:44:20;11.98;;;5.00;;
52186;SDS011;38161;53.020;6.598;2022-12-05T15:46:52;8.02;;;4.10;;
52186;SDS011;38161;53.020;6.598;2022-12-05T15:49:26;10.55;;;4.80;;
52186;SDS011;38161;53.020;6.598;2022-12-05T15:51:57;9.68;;;4.43;;
52186;SDS011;38161;53.020;6.598;2022-12-05T15:54:42;10.48;;;4.05;;
52186;SDS011;38161;53.020;6.598;2022-12-05T15:57:14;9.13;;;4.00;;
52186;SDS011;38161;53.020;6.598;2022-12-05T15:59:46;8.43;;;4.50;;
52186;SDS011;38161;53.020;6.598;2022-12-05T16:02:18;6.13;;;3.72;;
52186;SDS011;38161;53.020;6.598;2022-12-05T16:04:49;8.25;;;4.85;;
52186;SDS011;38161;53.020;6.598;2022-12-05T16:07:17;6.60;;;3.78;;
52186;SDS011;38161;53.020;6.598;2022-12-05T16:09:45;8.25;;;4.03;;
52186;SDS011;38161;53.020;6.598;2022-12-05T16:12:22;7.75;;;3.92;;
52186;SDS011;38161;53.020;6.598;2022-12-05T16:14:53;6.03;;;4.07;;
52186;SDS011;38161;53.020;6.598;2022-12-05T16:17:22;6.35;;;3.67;;
52186;SDS011;38161;53.020;6.598;2022-12-05T16:19:48;7.32;;;3.88;;
52186;SDS011;38161;53.020;6.598;2022-12-05T16:22:22;6.65;;;3.83;;
52186;SDS011;38161;53.020;6.598;2022-12-05T16:27:26;6.90;;;3.53;;
52186;SDS011;38161;53.020;6.598;2022-12-05T16:32:37;6.63;;;3.60;;
52186;SDS011;38161;53.020;6.598;2022-12-05T16:35:21;8.88;;;4.60;;
52186;SDS011;38161;53.020;6.598;2022-12-05T16:38:11;9.13;;;3.92;;
52186;SDS011;38161;53.020;6.598;2022-12-05T16:40:53;8.85;;;4.18;;
52186;SDS011;38161;53.020;6.598;2022-12-05T16:45:50;7.60;;;4.05;;
52186;SDS011;38161;53.020;6.598;2022-12-05T16:48:20;6.63;;;3.58;;
52186;SDS011;38161;53.020;6.598;2022-12-05T16:50:51;7.38;;;4.20;;
52186;SDS011;38161;53.020;6.598;2022-12-05T16:53:38;6.78;;;3.95;;
52186;SDS011;38161;53.020;6.598;2022-12-05T16:56:11;7.35;;;4.07;;
52186;SDS011;38161;53.020;6.598;2022-12-05T16:58:44;8.25;;;4.22;;
52186;SDS011;38161;53.020;6.598;2022-12-05T17:01:14;8.38;;;4.63;;
52186;SDS011;38161;53.020;6.598;2022-12-05T17:03:42;9.48;;;4.68;;
52186;SDS011;38161;53.020;6.598;2022-12-05T17:06:09;9.77;;;4.70;;
52186;SDS011;38161;53.020;6.598;2022-12-05T17:08:35;9.17;;;4.53;;
52186;SDS011;38161;53.020;6.598;2022-12-05T17:11:00;8.87;;;4.23;;
52186;SDS011;38161;53.020;6.598;2022-12-05T17:13:28;7.30;;;4.13;;
52186;SDS011;38161;53.020;6.598;2022-12-05T17:15:55;7.80;;;4.63;;
52186;SDS011;38161;53.020;6.598;2022-12-05T17:18:21;7.33;;;4.33;;
52186;SDS011;38161;53.020;6.598;2022-12-05T17:20:48;7.75;;;4.72;;
52186;SDS011;38161;53.020;6.598;2022-12-05T17:23:19;8.40;;;4.30;;
52186;SDS011;38161;53.020;6.598;2022-12-05T17:25:46;8.07;;;4.50;;
52186;SDS011;38161;53.020;6.598;2022-12-05T17:28:23;7.93;;;4.43;;
52186;SDS011;38161;53.020;6.598;2022-12-05T17:30:49;7.80;;;4.50;;
52186;SDS011;38161;53.020;6.598;2022-12-05T17:33:16;9.77;;;4.97;;
52186;SDS011;38161;53.020;6.598;2022-12-05T17:35:43;11.70;;;4.40;;
52186;SDS011;38161;53.020;6.598;2022-12-05T17:38:09;7.75;;;4.47;;
52186;SDS011;38161;53.020;6.598;2022-12-05T17:40:36;7.15;;;4.28;;
52186;SDS011;38161;53.020;6.598;2022-12-05T17:43:02;9.00;;;5.07;;
52186;SDS011;38161;53.020;6.598;2022-12-05T17:45:28;12.75;;;5.97;;
52186;SDS011;38161;53.020;6.598;2022-12-05T17:47:55;8.98;;;5.05;;
52186;SDS011;38161;53.020;6.598;2022-12-05T17:50:22;8.00;;;5.05;;
52186;SDS011;38161;53.020;6.598;2022-12-05T17:52:49;9.10;;;5.25;;
52186;SDS011;38161;53.020;6.598;2022-12-05T17:55:16;7.35;;;4.93;;
52186;SDS011;38161;53.020;6.598;2022-12-05T17:57:47;10.32;;;5.90;;
52186;SDS011;38161;53.020;6.598;2022-12-05T18:00:14;10.80;;;6.28;;
52186;SDS011;38161;53.020;6.598;2022-12-05T18:02:41;8.82;;;5.07;;